Time;durP1;ratioP1;P1;durP2;ratioP2;P2;SDS_P1;SDS_P2;PMS_P1;PMS_P2;Temp;Humidity;BMP_temperature;BMP_pressure;BME280_temperature;BME280_humidity;BME280_pressure;Samples;Min_cycle;Max_cycle;Signal;HPM_P1;HPM_P2
2022/04/28 00:02:11;;;;;;;;;;;;;;;16.83;40.24;100972.63;5077349;28;1548;-56
2022/04/28 00:04:36;;;;;;;;;;;;;;;16.99;41.25;100968.00;5077328;28;806;-57
2022/04/28 00:07:02;;;;;;;;;;;;;;;17.19;42.49;100975.44;5078204;28;808;-57
2022/04/28 00:09:27;;;;;;;;;;;;;;;17.35;43.08;100972.72;5080592;28;1011;-56
2022/04/28 00:11:53;;;;;;;;;;;;;;;17.50;44.49;100974.66;5077733;28;921;-56
2022/04/28 00:14:18;;;;;;;;;;;;;;;17.90;45.35;100967.47;5077550;28;1111;-57
2022/04/28 00:16:44;;;;;;;;;;;;;;;18.11;46.07;100968.28;5077298;28;729;-57
2022/04/28 00:19:09;;;;;;;;;;;;;;;18.36;46.92;100967.38;5077243;28;1902;-56
2022/04/28 00:21:35;;;;;;;;;;;;;;;18.47;46.92;100971.75;5077415;28;895;-56
2022/04/28 00:24:00;;;;;;;;;;;;;;;18.27;46.70;100971.81;5082701;28;875;-56
2022/04/28 00:26:26;;;;;;;;;;;;;;;17.98;45.57;100969.69;5077055;28;815;-57
2022/04/28 00:28:51;;;;;;;;;;;;;;;17.76;44.46;100976.28;5077142;28;731;-56
2022/04/28 00:31:17;;;;;;;;;;;;;;;17.50;42.81;100969.16;5077242;28;829;-56
2022/04/28 00:33:42;;;;;;;;;;;;;;;17.31;41.88;100958.72;5079284;28;1407;-56
2022/04/28 00:36:08;;;;;;;;;;;;;;;17.18;41.06;100961.97;5076482;28;898;-56
2022/04/28 00:38:34;;;;;;;;;;;;;;;17.07;40.69;100972.97;5077191;28;847;-56
2022/04/28 00:40:59;;;;;;;;;;;;;;;16.99;40.39;100958.94;5076380;28;1918;-56
2022/04/28 00:43:28;;;;;;;;;;;;;;;16.95;40.23;100968.84;5076906;28;1558;-56
2022/04/28 00:45:54;;;;;;;;;;;;;;;16.85;40.32;100961.38;5077120;28;806;-56
2022/04/28 00:51:04;;;;;;;;;;;;;;;16.92;40.75;100953.72;5076500;28;826;-57
2022/04/28 00:53:30;;;;;;;;;;;;;;;17.34;43.53;100954.59;5076987;28;843;-57
2022/04/28 00:55:58;;;;;;;;;;;;;;;17.94;46.53;100952.09;5089122;28;836;-59
2022/04/28 00:58:24;;;;;;;;;;;;;;;18.49;47.61;100954.13;5082237;28;1374;-62
2022/04/28 01:00:50;;;;;;;;;;;;;;;18.90;48.55;100952.00;5077061;28;1909;-61
2022/04/28 01:03:16;;;;;;;;;;;;;;;18.29;50.90;100955.84;5076698;28;949;-60
2022/04/28 01:05:41;;;;;;;;;;;;;;;17.79;51.41;100945.50;5075219;28;1097;-62
2022/04/28 01:08:07;;;;;;;;;;;;;;;16.93;51.05;100953.44;5075578;28;1138;-60
2022/04/28 01:10:34;;;;;;;;;;;;;;;16.77;48.79;100940.72;5075099;28;1154;-61
2022/04/28 01:12:59;;;;;;;;;;;;;;;17.03;45.17;100933.41;5078509;28;1206;-60
2022/04/28 01:15:25;;;;;;;;;;;;;;;17.00;43.02;100933.94;5077050;28;1118;-61
2022/04/28 01:17:52;;;;;;;;;;;;;;;16.85;41.80;100942.13;5074822;28;1197;-60
2022/04/28 01:20:17;;;;;;;;;;;;;;;16.77;41.00;100941.56;5087276;28;1968;-59
2022/04/28 01:22:43;;;;;;;;;;;;;;;16.75;40.49;100938.25;5094738;28;1342;-57
2022/04/28 01:25:12;;;;;;;;;;;;;;;16.87;41.50;100951.75;5080644;28;1106;-58
2022/04/28 01:27:38;;;;;;;;;;;;;;;17.03;42.45;100947.13;5075923;28;1141;-58
2022/04/28 01:30:04;;;;;;;;;;;;;;;17.20;43.25;100946.06;5074847;28;1361;-59
2022/04/28 01:32:31;;;;;;;;;;;;;;;17.33;44.18;100941.94;5074981;28;1116;-59
2022/04/28 01:34:56;;;;;;;;;;;;;;;17.41;45.11;100941.41;5074929;28;1294;-59
2022/04/28 01:37:25;;;;;;;;;;;;;;;17.50;45.50;100934.25;5075152;28;1231;-60
2022/04/28 01:39:53;;;;;;;;;;;;;;;17.51;45.93;100943.31;5080307;28;1978;-58
2022/04/28 01:42:18;;;;;;;;;;;;;;;17.60;46.02;100936.19;5076537;28;806;-58
2022/04/28 01:44:44;;;;;;;;;;;;;;;17.68;45.91;100935.59;5075034;28;1090;-60
2022/04/28 01:47:10;;;;;;;;;;;;;;;17.76;45.97;100946.03;5075268;28;1175;-60
2022/04/28 01:49:55;;;;;;;;;;;;;;;17.81;45.98;100944.38;5074825;28;1388;-60
2022/04/28 01:55:46;;;;;;;;;;;;;;;17.91;46.01;100938.91;5075881;28;1421;-58
2022/04/28 01:58:31;;;;;;;;;;;;;;;17.96;46.21;100938.88;5074839;28;1196;-59
2022/04/28 02:01:14;;;;;;;;;;;;;;;18.01;46.27;100947.13;5074871;28;1902;-58
2022/04/28 02:03:39;;;;;;;;;;;;;;;18.05;45.90;100948.22;5082233;28;1250;-56
2022/04/28 02:06:04;;;;;;;;;;;;;;;18.02;45.91;100951.53;5081405;28;1195;-56
2022/04/28 02:08:31;;;;;;;;;;;;;;;17.90;45.29;100939.97;5090560;28;1415;-56
2022/04/28 02:10:57;;;;;;;;;;;;;;;17.77;44.32;100944.13;5074586;28;1122;-56
2022/04/28 02:13:45;;;;;;;;;;;;;;;17.48;43.08;100939.19;5075630;28;1138;-57
2022/04/28 02:16:34;;;;;;;;;;;;;;;17.31;42.05;100938.66;5051588;28;1422;-56
2022/04/28 02:19:11;;;;;;;;;;;;;;;17.16;41.04;100936.72;5074460;28;1972;-56
2022/04/28 02:21:37;;;;;;;;;;;;;;;17.04;40.74;100935.06;5074895;28;1223;-57
2022/04/28 02:24:03;;;;;;;;;;;;;;;16.95;40.13;100936.69;5075524;28;863;-56
2022/04/28 02:26:29;;;;;;;;;;;;;;;16.85;39.74;100937.47;5074447;28;1161;-56
2022/04/28 02:28:55;;;;;;;;;;;;;;;16.76;39.62;100939.91;5075028;28;1164;-55
2022/04/28 02:31:25;;;;;;;;;;;;;;;16.70;39.65;100945.66;5073686;28;1077;-56
2022/04/28 02:33:50;;;;;;;;;;;;;;;16.69;39.48;100944.84;5075904;28;812;-56
2022/04/28 02:36:36;;;;;;;;;;;;;;;16.62;39.72;100944.28;5075286;28;1113;-56
2022/04/28 02:39:02;;;;;;;;;;;;;;;16.65;39.61;100946.47;5074257;28;838;-56
2022/04/28 02:41:28;;;;;;;;;;;;;;;16.58;39.24;100940.41;5075664;28;1906;-55
2022/04/28 02:43:53;;;;;;;;;;;;;;;16.56;39.96;100945.34;5075757;28;911;-56
2022/04/28 02:46:21;;;;;;;;;;;;;;;16.71;40.58;100942.63;5076079;28;1152;-56
2022/04/28 02:48:58;;;;;;;;;;;;;;;16.90;42.07;100943.00;5079444;28;797;-56
2022/04/28 02:51:24;;;;;;;;;;;;;;;17.10;42.70;100947.69;5077863;28;1313;-56
2022/04/28 02:53:49;;;;;;;;;;;;;;;17.13;43.53;100949.06;5079138;28;757;-56
2022/04/28 02:56:15;;;;;;;;;;;;;;;17.26;43.92;100950.44;5078803;28;1097;-57
2022/04/28 02:58:40;;;;;;;;;;;;;;;17.33;44.23;100955.69;5081736;28;824;-58
2022/04/28 03:01:07;;;;;;;;;;;;;;;17.36;44.59;100950.47;5076912;28;1905;-58
2022/04/28 03:03:33;;;;;;;;;;;;;;;17.48;44.48;100954.88;5077968;28;1343;-62
2022/04/28 03:11:28;;;;;;;;;;;;;;;17.67;44.97;100942.22;5098373;28;786;-58
2022/04/28 03:13:54;;;;;;;;;;;;;;;17.70;45.24;100946.34;5098187;28;1130;-58
2022/04/28 03:16:20;;;;;;;;;;;;;;;17.66;45.31;100940.56;5087393;28;1461;-58
2022/04/28 03:18:54;;;;;;;;;;;;;;;17.74;45.13;100953.75;5077626;28;1322;-59
2022/04/28 03:21:20;;;;;;;;;;;;;;;17.76;45.29;100947.97;5084497;28;1902;-57
2022/04/28 03:23:46;;;;;;;;;;;;;;;17.81;45.26;100949.88;5095049;28;1164;-57
2022/04/28 03:26:13;;;;;;;;;;;;;;;17.87;45.55;100948.78;5077478;28;1114;-58
2022/04/28 03:28:38;;;;;;;;;;;;;;;17.92;45.39;100955.13;5077222;28;1352;-57
2022/04/28 03:31:04;;;;;;;;;;;;;;;17.98;45.44;100961.44;5078251;28;793;-58
2022/04/28 03:33:37;;;;;;;;;;;;;;;17.94;45.42;100957.59;5077018;28;1244;-59
2022/04/28 03:36:50;;;;;;;;;;;;;;;17.89;45.46;100960.31;5078084;28;802;-59
2022/04/28 03:38:49;;;;;;;;;;;;;;;17.79;44.67;100964.75;5076679;28;1848;-57
2022/04/28 03:41:15;;;;;;;;;;;;;;;17.59;43.57;100968.31;5076571;28;1913;-60
2022/04/28 03:43:40;;;;;;;;;;;;;;;17.35;42.44;100969.97;5078220;28;766;-59
2022/04/28 03:46:06;;;;;;;;;;;;;;;17.22;41.44;100976.84;5077298;28;861;-59
2022/04/28 03:48:32;;;;;;;;;;;;;;;17.10;40.90;100979.84;5077013;28;1138;-59
2022/04/28 03:50:57;;;;;;;;;;;;;;;16.98;40.23;100982.84;5079371;28;1115;-58
2022/04/28 03:53:23;;;;;;;;;;;;;;;16.88;39.84;100975.41;5083902;28;1535;-57
2022/04/28 03:55:48;;;;;;;;;;;;;;;16.81;39.84;100972.06;5081741;28;1622;-59
2022/04/28 03:58:14;;;;;;;;;;;;;;;16.80;40.05;100972.31;5084138;28;1413;-58
2022/04/28 04:00:41;;;;;;;;;;;;;;;16.85;40.81;100970.41;5081500;28;1977;-60
2022/04/28 04:03:14;;;;;;;;;;;;;;;17.04;42.05;100979.03;5081256;28;1428;-58
2022/04/28 04:05:40;;;;;;;;;;;;;;;17.19;43.03;100969.94;5079320;28;1390;-58
2022/04/28 04:08:06;;;;;;;;;;;;;;;17.34;44.09;100976.59;5076151;28;1086;-58
2022/04/28 04:10:33;;;;;;;;;;;;;;;17.42;44.51;100979.59;5075547;28;788;-59
2022/04/28 04:13:00;;;;;;;;;;;;;;;17.54;44.99;100970.25;5080031;28;1461;-59
2022/04/28 04:15:38;;;;;;;;;;;;;;;17.68;45.21;100974.09;5077811;28;1348;-57
2022/04/28 04:18:12;;;;;;;;;;;;;;;17.70;45.39;100971.91;5081246;28;1365;-57
2022/04/28 04:21:01;;;;;;;;;;;;;;;17.81;45.77;100969.13;5081805;28;1906;-58
2022/04/28 04:23:26;;;;;;;;;;;;;;;17.85;45.81;100965.56;5077511;28;1362;-57
2022/04/28 04:25:52;;;;;;;;;;;;;;;17.94;46.06;100974.09;5077554;28;1075;-57
2022/04/28 04:28:19;;;;;;;;;;;;;;;17.96;46.07;100971.88;5075831;28;1133;-57
2022/04/28 04:33:59;;;;;;;;;;;;;;;18.00;46.08;100966.66;5076053;28;1345;-58
2022/04/28 04:36:25;;;;;;;;;;;;;;;17.93;45.42;100978.75;5076021;28;1296;-57
2022/04/28 04:38:51;;;;;;;;;;;;;;;17.71;44.76;100976.31;5081487;28;1172;-58
2022/04/28 04:41:16;;;;;;;;;;;;;;;17.56;43.71;100979.88;5075978;28;1906;-57
2022/04/28 04:43:42;;;;;;;;;;;;;;;17.38;42.40;100980.44;5075587;28;1335;-56
2022/04/28 04:46:09;;;;;;;;;;;;;;;17.17;41.58;100987.84;5075493;28;1225;-57
2022/04/28 04:48:54;;;;;;;;;;;;;;;16.73;41.25;100987.16;5083009;28;1039;-59
2022/04/28 04:51:33;;;;;;;;;;;;;;;16.29;44.21;101001.22;5081992;28;1345;-59
2022/04/28 04:54:17;;;;;;;;;;;;;;;17.37;49.60;101001.59;5074511;28;1175;-59
2022/04/28 04:56:42;;;;;;;;;;;;;;;18.03;51.52;101005.44;5076180;28;1421;-59
2022/04/28 04:59:08;;;;;;;;;;;;;;;18.39;53.44;101012.81;5093127;28;958;-56
2022/04/28 05:01:33;;;;;;;;;;;;;;;19.02;53.33;101009.53;5086363;28;1172;-56
2022/04/28 05:04:17;;;;;;;;;;;;;;;19.04;53.81;101020.25;5076546;28;666;-57
2022/04/28 05:07:03;;;;;;;;;;;;;;;18.85;52.95;101015.38;5054931;28;1113;-59
2022/04/28 05:09:30;;;;;;;;;;;;;;;17.27;53.53;101012.56;5081912;28;1105;-59
2022/04/28 05:11:56;;;;;;;;;;;;;;;16.88;49.96;101010.25;5094952;28;1181;-59
2022/04/28 05:14:45;;;;;;;;;;;;;;;16.91;47.44;101009.75;5084499;28;1412;-58
2022/04/28 05:17:12;;;;;;;;;;;;;;;17.49;49.10;101011.47;5074683;28;1261;-59
2022/04/28 05:19:58;;;;;;;;;;;;;;;18.07;50.91;101023.03;5068368;28;1914;-58
2022/04/28 05:22:42;;;;;;;;;;;;;;;17.98;49.59;101021.97;5081124;28;1404;-58
2022/04/28 05:25:42;;;;;;;;;;;;;;;17.73;47.98;101023.59;5023645;28;1440;-60
2022/04/28 05:28:27;;;;;;;;;;;;;;;17.48;45.25;101018.09;5080313;28;1379;-57
2022/04/28 05:31:25;;;;;;;;;;;;;;;17.26;43.34;101024.66;5041839;28;1539;-58
2022/04/28 05:34:05;;;;;;;;;;;;;;;17.08;41.80;101018.59;5077853;28;1424;-58
2022/04/28 05:36:41;;;;;;;;;;;;;;;16.92;40.94;101025.13;5075001;28;785;-57
2022/04/28 05:39:06;;;;;;;;;;;;;;;16.82;40.51;101027.81;5077388;28;859;-56
2022/04/28 05:41:32;;;;;;;;;;;;;;;16.78;40.52;101030.25;5082937;28;1905;-57
2022/04/28 05:46:42;;;;;;;;;;;;;;;17.26;43.71;101041.16;5094140;28;1174;-58
2022/04/28 05:49:07;;;;;;;;;;;;;;;17.49;45.71;101026.06;5088402;28;1414;-58
2022/04/28 05:51:33;;;;;;;;;;;;;;;17.80;47.47;101037.09;5074105;28;1290;-56
2022/04/28 05:53:59;;;;;;;;;;;;;;;18.05;49.14;101029.94;5081542;28;1314;-57
2022/04/28 05:56:26;;;;;;;;;;;;;;;18.24;50.00;101027.44;5075141;28;1159;-57
2022/04/28 05:58:56;;;;;;;;;;;;;;;18.38;50.17;101028.47;5074660;28;1402;-56
2022/04/28 06:01:40;;;;;;;;;;;;;;;18.28;49.54;101023.81;5076212;28;621;-59
2022/04/28 06:04:09;;;;;;;;;;;;;;;18.10;47.80;101032.69;5075022;28;1110;-58
2022/04/28 06:06:37;;;;;;;;;;;;;;;17.82;45.67;101031.31;5077906;28;1423;-58
2022/04/28 06:09:07;;;;;;;;;;;;;;;17.61;44.06;101023.03;5080342;28;1213;-59
2022/04/28 06:11:34;;;;;;;;;;;;;;;17.48;42.52;101031.84;5078581;28;1163;-58
2022/04/28 06:13:59;;;;;;;;;;;;;;;17.27;41.86;101031.81;5075879;28;1423;-57
2022/04/28 06:16:45;;;;;;;;;;;;;;;17.21;41.09;101030.16;5051574;28;1576;-56
2022/04/28 06:19:26;;;;;;;;;;;;;;;17.13;40.33;101025.19;5088447;28;1909;-56
2022/04/28 06:22:00;;;;;;;;;;;;;;;17.01;40.73;101023.53;5083946;28;1242;-58
2022/04/28 06:24:26;;;;;;;;;;;;;;;16.91;40.08;101024.31;5076222;28;1215;-57
2022/04/28 06:26:53;;;;;;;;;;;;;;;16.89;39.64;101028.44;5078372;28;1202;-55
2022/04/28 06:29:18;;;;;;;;;;;;;;;16.84;39.94;101031.09;5078584;28;1107;-56
2022/04/28 06:31:44;;;;;;;;;;;;;;;16.96;40.91;101034.50;5071171;28;1307;-57
2022/04/28 06:34:42;;;;;;;;;;;;;;;17.17;42.42;101040.03;5049882;28;1362;-57
2022/04/28 06:37:08;;;;;;;;;;;;;;;17.29;43.07;101046.09;5092050;28;935;-56
2022/04/28 06:39:35;;;;;;;;;;;;;;;17.37;43.69;101045.56;5087959;28;1905;-57
2022/04/28 06:42:01;;;;;;;;;;;;;;;17.40;44.12;101049.69;5078169;28;1312;-57
2022/04/28 06:44:49;;;;;;;;;;;;;;;17.49;44.63;101056.31;5087104;28;1447;-58
2022/04/28 06:47:44;;;;;;;;;;;;;;;17.55;44.72;101054.41;5059488;28;1296;-58
2022/04/28 06:50:28;;;;;;;;;;;;;;;17.60;44.95;101057.16;5078755;28;675;-58
2022/04/28 06:53:11;;;;;;;;;;;;;;;17.63;45.02;101045.59;5079006;28;1205;-59
2022/04/28 06:55:37;;;;;;;;;;;;;;;17.78;45.77;101053.88;5083219;28;1852;-57
2022/04/28 06:58:03;;;;;;;;;;;;;;;17.88;46.03;101054.94;5093185;28;1253;-57
2022/04/28 07:00:33;;;;;;;;;;;;;;;17.94;46.12;101056.66;5083145;28;1980;-58
2022/04/28 07:03:00;;;;;;;;;;;;;;;17.97;46.09;101044.28;5083754;28;1377;-58
2022/04/28 07:05:28;;;;;;;;;;;;;;;18.07;45.73;101045.06;5085690;28;1437;-57
2022/04/28 07:07:57;;;;;;;;;;;;;;;17.84;46.24;101053.84;5078883;28;794;-60
2022/04/28 07:10:30;;;;;;;;;;;;;;;17.39;46.88;101056.28;5089105;28;1278;-58
2022/04/28 07:12:55;;;;;;;;;;;;;;;17.47;50.02;101057.69;5088029;28;1335;-58
2022/04/28 07:15:40;;;;;;;;;;;;;;;17.98;53.39;101063.25;5078640;28;664;-58
2022/04/28 07:18:24;;;;;;;;;;;;;;;18.11;55.09;101064.59;5080016;28;579;-58
2022/04/28 07:20:51;;;;;;;;;;;;;;;18.20;56.62;101064.84;5095305;28;1976;-58
2022/04/28 07:23:17;;;;;;;;;;;;;;;18.36;57.25;101062.94;5080709;28;1271;-61
2022/04/28 07:25:43;;;;;;;;;;;;;;;18.34;58.12;101068.72;5089905;28;1426;-60
2022/04/28 07:28:08;;;;;;;;;;;;;;;18.38;58.98;101077.22;5091500;28;1361;-60
2022/04/28 07:30:52;;;;;;;;;;;;;;;19.09;58.20;101075.38;5085546;28;1392;-60
2022/04/28 07:33:37;;;;;;;;;;;;;;;19.48;57.74;101071.81;5080261;28;1383;-61
2022/04/28 07:36:21;;;;;;;;;;;;;;;19.79;57.15;101072.44;5087855;28;1311;-60
2022/04/28 07:39:05;;;;;;;;;;;;;;;19.97;56.45;101075.63;5084991;28;1245;-59
2022/04/28 07:41:47;;;;;;;;;;;;;;;19.49;57.85;101077.06;5084461;28;1195;-61
2022/04/28 07:44:13;;;;;;;;;;;;;;;19.43;57.04;101080.97;5087337;28;1392;-60
2022/04/28 07:46:39;;;;;;;;;;;;;;;18.47;57.10;101081.88;5082649;28;1373;-59
2022/04/28 07:49:04;;;;;;;;;;;;;;;18.21;56.97;101083.84;5078474;28;1348;-60
2022/04/28 07:51:31;;;;;;;;;;;;;;;18.29;58.85;101079.72;5077021;28;996;-59
2022/04/28 07:53:57;;;;;;;;;;;;;;;18.72;58.84;101074.66;5078991;28;1232;-59
2022/04/28 07:56:22;;;;;;;;;;;;;;;19.45;56.38;101075.16;5094776;28;1225;-59
2022/04/28 07:58:49;;;;;;;;;;;;;;;19.83;54.86;101079.03;5097172;28;784;-60
2022/04/28 08:01:22;;;;;;;;;;;;;;;20.11;54.01;101079.34;5093478;28;1980;-62
2022/04/28 08:03:48;;;;;;;;;;;;;;;19.77;54.43;101080.16;5086925;28;1444;-60
2022/04/28 08:06:14;;;;;;;;;;;;;;;19.67;54.83;101080.25;5076704;28;1372;-60
2022/04/28 08:08:41;;;;;;;;;;;;;;;19.13;55.14;101088.28;5082616;28;1219;-62
2022/04/28 08:11:07;;;;;;;;;;;;;;;18.45;55.92;101089.59;5086952;28;1524;-60
2022/04/28 08:13:32;;;;;;;;;;;;;;;18.35;57.43;101099.81;5080798;28;1397;-60
2022/04/28 08:16:09;;;;;;;;;;;;;;;18.39;58.37;101109.16;5085088;28;1333;-60
2022/04/28 08:18:40;;;;;;;;;;;;;;;19.05;56.86;101099.91;5077220;28;821;-60
2022/04/28 08:21:08;;;;;;;;;;;;;;;19.74;54.51;101090.94;5090103;28;1909;-60
2022/04/28 08:23:36;;;;;;;;;;;;;;;20.06;53.61;101101.47;5075349;28;1344;-59
2022/04/28 08:26:02;;;;;;;;;;;;;;;19.74;54.16;101097.31;5079824;28;1539;-62
2022/04/28 08:28:28;;;;;;;;;;;;;;;19.63;54.50;101101.25;5079272;28;1238;-61
2022/04/28 08:30:53;;;;;;;;;;;;;;;19.17;54.51;101098.75;5075376;28;963;-63
2022/04/28 08:33:20;;;;;;;;;;;;;;;18.49;54.95;101111.91;5075793;28;1229;-60
2022/04/28 08:35:46;;;;;;;;;;;;;;;18.26;56.58;101099.56;5079077;28;1209;-60
2022/04/28 08:38:11;;;;;;;;;;;;;;;18.37;57.19;101119.63;5077009;28;1233;-61
2022/04/28 08:40:40;;;;;;;;;;;;;;;19.18;54.96;101111.41;5079343;28;1974;-60
2022/04/28 08:43:08;;;;;;;;;;;;;;;19.80;53.09;101112.72;5072314;28;1304;-60
2022/04/28 08:45:38;;;;;;;;;;;;;;;20.15;52.27;101110.78;5078144;28;1284;-61
2022/04/28 08:48:33;;;;;;;;;;;;;;;19.67;53.28;101114.19;5062897;28;1225;-59
2022/04/28 08:51:08;;;;;;;;;;;;;;;19.66;53.19;101119.97;5075053;28;1406;-59
2022/04/28 08:53:33;;;;;;;;;;;;;;;18.91;53.78;101123.66;5079748;28;1137;-59
2022/04/28 08:55:59;;;;;;;;;;;;;;;18.28;54.32;101122.09;5079615;28;1413;-59
2022/04/28 08:58:25;;;;;;;;;;;;;;;18.27;57.38;101125.97;5085531;28;1302;-59
2022/04/28 09:00:52;;;;;;;;;;;;;;;19.29;54.31;101124.03;5083571;28;1984;-58
2022/04/28 09:03:23;;;;;;;;;;;;;;;19.87;52.25;101114.34;5082704;28;1519;-58
2022/04/28 09:06:15;;;;;;;;;;;;;;;20.24;51.17;101121.22;5063844;28;1291;-58
2022/04/28 09:09:04;;;;;;;;;;;;;;;19.74;52.34;101133.19;5042610;28;1392;-59
2022/04/28 09:12:02;;;;;;;;;;;;;;;19.76;52.23;101127.38;5041324;28;1336;-59
2022/04/28 09:14:49;;;;;;;;;;;;;;;18.68;54.96;101134.16;5077352;28;1635;-59
2022/04/28 09:17:19;;;;;;;;;;;;;;;18.52;55.70;101132.53;5063436;28;1427;-59
2022/04/28 09:19:46;;;;;;;;;;;;;;;18.42;56.14;101131.44;5085889;28;1946;-59
2022/04/28 09:22:24;;;;;;;;;;;;;;;18.60;55.69;101134.72;5081323;28;1267;-58
2022/04/28 09:24:55;;;;;;;;;;;;;;;19.52;52.92;101141.00;5082987;28;1220;-59
2022/04/28 09:27:21;;;;;;;;;;;;;;;19.95;51.53;101131.13;5081163;28;1427;-59
2022/04/28 09:29:46;;;;;;;;;;;;;;;20.22;50.91;101126.22;5075464;28;1421;-59
2022/04/28 09:32:12;;;;;;;;;;;;;;;19.69;52.23;101133.19;5064325;28;1445;-59
2022/04/28 09:35:13;;;;;;;;;;;;;;;19.74;52.09;101140.59;5031258;28;1313;-59
2022/04/28 09:38:12;;;;;;;;;;;;;;;18.61;53.30;101142.72;5071401;28;1351;-59
2022/04/28 09:43:21;;;;;;;;;;;;;;;18.40;55.89;101141.13;5079295;28;1237;-59
2022/04/28 09:45:51;;;;;;;;;;;;;;;19.42;52.74;101145.50;5088120;28;1405;-59
2022/04/28 09:48:17;;;;;;;;;;;;;;;19.90;51.29;101144.94;5062633;28;1233;-59
2022/04/28 09:50:50;;;;;;;;;;;;;;;20.21;50.38;101138.38;5086705;28;1304;-58
2022/04/28 09:53:22;;;;;;;;;;;;;;;19.77;51.69;101140.06;5082034;28;1265;-59
2022/04/28 09:56:10;;;;;;;;;;;;;;;19.75;51.70;101136.75;5083605;28;1395;-59
2022/04/28 09:58:42;;;;;;;;;;;;;;;18.89;52.80;101139.66;5084544;28;1271;-59
2022/04/28 10:01:08;;;;;;;;;;;;;;;18.33;53.92;101138.63;5077913;28;1910;-61
2022/04/28 10:03:39;;;;;;;;;;;;;;;18.41;55.44;101138.06;5078800;28;1263;-61
2022/04/28 10:06:07;;;;;;;;;;;;;;;18.38;55.66;101138.59;5079055;28;1266;-60
2022/04/28 10:08:48;;;;;;;;;;;;;;;19.55;51.84;101126.69;5086428;28;1356;-60
2022/04/28 10:11:19;;;;;;;;;;;;;;;20.07;50.62;101136.25;5065833;28;1543;-59
2022/04/28 10:13:46;;;;;;;;;;;;;;;20.29;49.75;101143.25;5063417;28;1206;-58
2022/04/28 10:16:11;;;;;;;;;;;;;;;19.75;51.09;101136.75;5080357;28;1154;-59
2022/04/28 10:18:44;;;;;;;;;;;;;;;19.82;50.88;101132.59;5068522;28;1260;-63
2022/04/28 10:21:13;;;;;;;;;;;;;;;18.76;52.95;101139.13;5069768;28;1905;-61
2022/04/28 10:32:36;;;;;;;;;;;;;;;19.71;50.75;101136.47;5084009;28;1427;-60
2022/04/28 10:35:03;;;;;;;;;;;;;;;20.18;49.63;101129.53;5083635;28;1419;-59
2022/04/28 10:37:41;;;;;;;;;;;;;;;20.10;49.79;101132.91;5082811;28;1276;-59
2022/04/28 10:40:08;;;;;;;;;;;;;;;19.80;50.54;101129.28;5090558;28;1967;-60
2022/04/28 10:42:53;;;;;;;;;;;;;;;19.43;51.13;101130.59;5087602;28;1509;-61
2022/04/28 10:45:19;;;;;;;;;;;;;;;18.38;51.61;101133.09;5078566;28;1914;-59
2022/04/28 10:47:45;;;;;;;;;;;;;;;17.87;52.41;101138.59;5084890;28;1427;-60
2022/04/28 10:50:24;;;;;;;;;;;;;;;18.69;54.03;101134.97;5084559;28;862;-60
2022/04/28 10:53:02;;;;;;;;;;;;;;;19.63;51.13;101134.34;5078961;28;801;-60
2022/04/28 10:55:34;;;;;;;;;;;;;;;20.08;49.83;101134.34;5078971;28;834;-60
2022/04/28 10:58:19;;;;;;;;;;;;;;;20.01;49.84;101126.38;5077617;28;1117;-59
2022/04/28 11:00:57;;;;;;;;;;;;;;;19.77;50.63;101134.53;5078728;28;1981;-61
2022/04/28 11:03:58;;;;;;;;;;;;;;;19.10;51.61;101129.38;5078878;28;822;-59
2022/04/28 11:06:28;;;;;;;;;;;;;;;18.23;53.41;101136.72;5050383;28;1248;-59
2022/04/28 11:08:55;;;;;;;;;;;;;;;18.33;54.58;101135.88;5088452;28;1244;-61
2022/04/28 11:11:24;;;;;;;;;;;;;;;18.36;54.46;101140.00;5077186;28;835;-59
2022/04/28 11:13:57;;;;;;;;;;;;;;;19.20;52.15;101134.03;5078372;28;1277;-59
2022/04/28 11:16:23;;;;;;;;;;;;;;;19.86;50.28;101141.09;5078607;28;786;-59
2022/04/28 11:18:48;;;;;;;;;;;;;;;20.20;49.33;101137.53;5078853;28;841;-59
2022/04/28 11:21:15;;;;;;;;;;;;;;;19.91;49.78;101137.47;5078805;28;1976;-59
2022/04/28 11:23:41;;;;;;;;;;;;;;;19.76;50.35;101128.19;5084539;28;1483;-58
2022/04/28 11:26:32;;;;;;;;;;;;;;;19.04;51.17;101134.09;5077297;28;1269;-59
2022/04/28 11:29:22;;;;;;;;;;;;;;;18.17;52.66;101128.72;5081420;28;1502;-59
2022/04/28 11:31:49;;;;;;;;;;;;;;;18.17;55.06;101128.72;5083605;28;1258;-59
2022/04/28 11:34:14;;;;;;;;;;;;;;;18.50;54.24;101130.06;5084748;28;1276;-59
2022/04/28 11:36:41;;;;;;;;;;;;;;;19.51;51.12;101131.94;5083344;28;1265;-59
2022/04/28 11:39:08;;;;;;;;;;;;;;;19.98;49.62;101129.72;5086892;28;984;-58
2022/04/28 11:41:40;;;;;;;;;;;;;;;20.27;48.70;101115.94;5097507;28;1975;-58
2022/04/28 11:44:07;;;;;;;;;;;;;;;19.67;50.23;101122.44;5096190;28;885;-59
2022/04/28 11:46:51;;;;;;;;;;;;;;;19.86;49.89;101126.50;5078239;28;1089;-57
2022/04/28 11:49:17;;;;;;;;;;;;;;;18.88;51.35;101122.28;5078592;28;738;-58
2022/04/28 11:51:42;;;;;;;;;;;;;;;18.03;51.41;101126.50;5077894;28;860;-57
2022/04/28 11:54:25;;;;;;;;;;;;;;;17.85;53.94;101121.53;5082933;28;1150;-57
2022/04/28 11:56:51;;;;;;;;;;;;;;;19.01;52.61;101118.09;5085801;28;1269;-59
2022/04/28 11:59:16;;;;;;;;;;;;;;;19.74;50.46;101122.13;5087532;28;1166;-58
2022/04/28 12:01:42;;;;;;;;;;;;;;;20.11;49.34;101114.44;5086382;28;1906;-57
2022/04/28 12:04:08;;;;;;;;;;;;;;;20.27;48.60;101115.94;5086209;28;916;-56
2022/04/28 12:06:33;;;;;;;;;;;;;;;19.96;49.47;101109.84;5078379;28;1324;-56
2022/04/28 12:14:21;;;;;;;;;;;;;;;18.90;52.11;101109.06;5090315;28;1221;-56
2022/04/28 12:14:29;;;;;;;;;;;;;;;16.37;51.76;101106.94;5080571;28;1313;-55
2022/04/28 12:19:50;;;;;;;;;;;;;;;17.16;43.01;101107.91;5086279;28;1917;-60
2022/04/28 12:22:35;;;;;;;;;;;;;;;17.14;41.20;101107.34;5077789;28;956;-58
2022/04/28 12:25:02;;;;;;;;;;;;;;;17.01;40.04;101108.69;5080525;28;1277;-60
2022/04/28 12:27:36;;;;;;;;;;;;;;;17.00;39.23;101103.44;5077347;28;734;-59
2022/04/28 12:30:06;;;;;;;;;;;;;;;16.89;39.35;101097.91;5076685;28;899;-57
2022/04/28 12:32:31;;;;;;;;;;;;;;;16.87;39.23;101096.47;5077477;28;778;-58
2022/04/28 12:35:01;;;;;;;;;;;;;;;16.99;40.14;101097.13;5075732;28;1199;-58
2022/04/28 12:37:27;;;;;;;;;;;;;;;17.13;41.46;101096.63;5077865;28;1337;-58
2022/04/28 12:39:57;;;;;;;;;;;;;;;17.38;42.27;101101.38;5078122;28;1909;-58
2022/04/28 12:42:22;;;;;;;;;;;;;;;17.51;43.25;101108.28;5084416;28;1344;-59
2022/04/28 12:44:48;;;;;;;;;;;;;;;17.57;44.00;101101.69;5077593;28;1507;-57
2022/04/28 12:47:14;;;;;;;;;;;;;;;17.68;44.55;101108.03;5080848;28;1411;-58
2022/04/28 12:49:43;;;;;;;;;;;;;;;17.71;45.01;101094.56;5076833;28;915;-61
2022/04/28 12:52:08;;;;;;;;;;;;;;;17.82;45.13;101102.81;5076852;28;766;-59
2022/04/28 12:54:36;;;;;;;;;;;;;;;17.85;45.28;101097.63;5081075;28;870;-59
2022/04/28 12:57:03;;;;;;;;;;;;;;;17.90;45.35;101099.53;5077005;28;745;-59
2022/04/28 12:59:36;;;;;;;;;;;;;;;18.00;45.48;101101.50;5078361;28;1905;-58
2022/04/28 13:02:01;;;;;;;;;;;;;;;18.00;45.52;101099.56;5085223;28;1113;-63
2022/04/28 13:04:27;;;;;;;;;;;;;;;18.06;45.83;101098.47;5086123;28;1471;-60
2022/04/28 13:06:52;;;;;;;;;;;;;;;18.08;45.74;101096.25;5086711;28;896;-59
2022/04/28 13:09:18;;;;;;;;;;;;;;;18.11;45.76;101103.13;5083840;28;1048;-60
2022/04/28 13:11:44;;;;;;;;;;;;;;;18.13;45.60;101099.00;5081866;28;1118;-59
2022/04/28 13:14:10;;;;;;;;;;;;;;;18.12;45.37;101105.59;5084293;28;1273;-64
2022/04/28 13:16:36;;;;;;;;;;;;;;;18.07;45.40;101100.09;5077285;28;785;-59
2022/04/28 13:19:01;;;;;;;;;;;;;;;18.13;45.07;101099.00;5091677;28;1360;-59
2022/04/28 13:21:27;;;;;;;;;;;;;;;18.11;44.62;101098.44;5082486;28;1901;-59
2022/04/28 13:23:52;;;;;;;;;;;;;;;17.99;44.08;101092.38;5079359;28;1135;-59
2022/04/28 13:26:18;;;;;;;;;;;;;;;17.87;43.33;101100.09;5076710;28;746;-59
2022/04/28 13:28:44;;;;;;;;;;;;;;;17.74;42.53;101095.94;5076319;28;778;-60
2022/04/28 13:31:11;;;;;;;;;;;;;;;17.63;41.83;101089.59;5079489;28;818;-60
2022/04/28 13:33:37;;;;;;;;;;;;;;;17.56;41.06;101084.38;5075810;28;855;-62
2022/04/28 13:36:03;;;;;;;;;;;;;;;17.51;40.93;101086.28;5076936;28;1142;-58
2022/04/28 13:38:28;;;;;;;;;;;;;;;17.43;40.43;101093.13;5080097;28;1202;-57
2022/04/28 13:40:54;;;;;;;;;;;;;;;17.38;40.31;101099.44;5084503;28;1910;-57